YTEF/TEF METAR and TAF weather

Enter ICAO airport designator
Station Type Date Time Source
YTEF METAR 2020/02/29 03:00 UTC NOAA

YTEF 290300Z AUTO 07013KT 9999 // NCD 39/17 Q1006


Station Type Date Time Source
YTEF Decoded METAR 2020/02/29 03:00 UTC NOAA

Station name not available
Feb 28, 2020 - 10:00 PM EST / 2020.02.29 0300 UTC
Wind: from the ENE (070 degrees) at 15 MPH (13 KT):0
Visibility: greater than 7 mile(s):0
Temperature: 102 F (39 C)
Heat index: 103.8 F (39.9 C):1
Dew Point: 62 F (17 C)
Relative Humidity: 27%
Pressure (altimeter): 29.71 in. Hg (1006 hPa)
ob: YTEF 290300Z AUTO 07013KT 9999 // NCD 39/17 Q1006
cycle: 3

Station Type Date Time Source
YTEF TAF 2017/06/24 02:03 UTC NOAA

TAF TAF YTEF 240051Z 2402/2414 12005KT CAVOK
FM240500 33005KT 9999 -SHRA SCT060 BKN100

Example: see airport list